sensor_id;sensor_type;location;lat;lon;timestamp;pressure;altitude;pressure_sealevel;temperature;humidity
11345;BME280;5727;42.600;23.028;2022-11-15T00:01:09;94205.22;;;4.54;100.00
11345;BME280;5727;42.600;23.028;2022-11-15T00:03:36;94201.09;;;4.53;100.00
11345;BME280;5727;42.600;23.028;2022-11-15T00:06:04;94206.81;;;4.50;100.00
11345;BME280;5727;42.600;23.028;2022-11-15T00:08:31;94204.78;;;4.47;100.00
11345;BME280;5727;42.600;23.028;2022-11-15T00:11:00;94203.00;;;4.42;100.00
11345;BME280;5727;42.600;23.028;2022-11-15T00:13:28;94201.97;;;4.43;100.00
11345;BME280;5727;42.600;23.028;2022-11-15T00:15:57;94203.78;;;4.43;100.00
11345;BME280;5727;42.600;23.028;2022-11-15T00:18:24;94198.09;;;4.41;100.00
11345;BME280;5727;42.600;23.028;2022-11-15T00:20:51;94197.59;;;4.39;100.00
11345;BME280;5727;42.600;23.028;2022-11-15T00:23:19;94201.78;;;4.35;100.00
11345;BME280;5727;42.600;23.028;2022-11-15T00:25:46;94199.69;;;4.37;100.00
11345;BME280;5727;42.600;23.028;2022-11-15T00:28:12;94203.34;;;4.36;100.00
11345;BME280;5727;42.600;23.028;2022-11-15T00:30:39;94204.88;;;4.37;100.00
11345;BME280;5727;42.600;23.028;2022-11-15T00:33:06;94215.84;;;4.29;100.00
11345;BME280;5727;42.600;23.028;2022-11-15T00:35:33;94206.56;;;4.23;100.00
11345;BME280;5727;42.600;23.028;2022-11-15T00:38:01;94204.25;;;4.21;100.00
11345;BME280;5727;42.600;23.028;2022-11-15T00:40:29;94200.13;;;4.20;100.00
11345;BME280;5727;42.600;23.028;2022-11-15T00:42:56;94199.13;;;4.16;100.00
11345;BME280;5727;42.600;23.028;2022-11-15T00:45:24;94207.91;;;4.20;100.00
11345;BME280;5727;42.600;23.028;2022-11-15T00:47:51;94203.47;;;4.21;100.00
11345;BME280;5727;42.600;23.028;2022-11-15T00:50:18;94205.56;;;4.19;100.00
11345;BME280;5727;42.600;23.028;2022-11-15T00:52:45;94192.66;;;4.14;100.00
11345;BME280;5727;42.600;23.028;2022-11-15T00:55:13;94198.91;;;4.13;100.00
11345;BME280;5727;42.600;23.028;2022-11-15T00:57:42;94200.44;;;4.14;100.00
11345;BME280;5727;42.600;23.028;2022-11-15T01:00:09;94194.22;;;4.15;100.00
11345;BME280;5727;42.600;23.028;2022-11-15T01:02:36;94202.06;;;4.05;100.00
11345;BME280;5727;42.600;23.028;2022-11-15T01:05:03;94194.78;;;4.07;100.00
11345;BME280;5727;42.600;23.028;2022-11-15T01:07:30;94201.50;;;4.08;100.00
11345;BME280;5727;42.600;23.028;2022-11-15T01:09:57;94201.50;;;4.08;100.00
11345;BME280;5727;42.600;23.028;2022-11-15T01:12:24;94196.88;;;4.05;100.00
11345;BME280;5727;42.600;23.028;2022-11-15T01:14:52;94192.22;;;4.02;100.00
11345;BME280;5727;42.600;23.028;2022-11-15T01:17:19;94201.88;;;3.96;100.00
11345;BME280;5727;42.600;23.028;2022-11-15T01:19:45;94191.22;;;3.98;100.00
11345;BME280;5727;42.600;23.028;2022-11-15T01:22:12;94190.25;;;3.94;100.00
11345;BME280;5727;42.600;23.028;2022-11-15T01:24:39;94186.59;;;3.95;100.00
11345;BME280;5727;42.600;23.028;2022-11-15T01:27:06;94186.59;;;3.95;100.00
11345;BME280;5727;42.600;23.028;2022-11-15T01:29:32;94189.69;;;3.97;100.00
11345;BME280;5727;42.600;23.028;2022-11-15T01:32:01;94191.78;;;3.95;100.00
11345;BME280;5727;42.600;23.028;2022-11-15T01:34:28;94193.38;;;3.91;100.00
11345;BME280;5727;42.600;23.028;2022-11-15T01:36:54;94184.81;;;3.90;100.00
11345;BME280;5727;42.600;23.028;2022-11-15T01:39:21;94192.34;;;3.87;100.00
11345;BME280;5727;42.600;23.028;2022-11-15T01:41:48;94194.19;;;3.86;100.00
11345;BME280;5727;42.600;23.028;2022-11-15T01:44:39;94190.84;;;3.81;100.00
11345;BME280;5727;42.600;23.028;2022-11-15T01:47:11;94185.44;;;3.77;100.00
11345;BME280;5727;42.600;23.028;2022-11-15T01:49:48;94191.41;;;3.78;100.00
11345;BME280;5727;42.600;23.028;2022-11-15T01:52:19;94191.94;;;3.75;100.00
11345;BME280;5727;42.600;23.028;2022-11-15T01:54:47;94194.03;;;3.72;100.00
11345;BME280;5727;42.600;23.028;2022-11-15T01:57:16;94190.41;;;3.73;100.00
11345;BME280;5727;42.600;23.028;2022-11-15T01:59:44;94193.50;;;3.76;100.00
11345;BME280;5727;42.600;23.028;2022-11-15T02:02:13;94191.94;;;3.75;100.00
11345;BME280;5727;42.600;23.028;2022-11-15T02:04:42;94191.44;;;3.72;100.00
11345;BME280;5727;42.600;23.028;2022-11-15T02:07:11;94195.34;;;3.70;100.00
11345;BME280;5727;42.600;23.028;2022-11-15T02:09:39;94191.19;;;3.69;100.00
11345;BME280;5727;42.600;23.028;2022-11-15T02:12:07;94185.50;;;3.67;100.00
11345;BME280;5727;42.600;23.028;2022-11-15T02:14:37;94191.47;;;3.67;100.00
11345;BME280;5727;42.600;23.028;2022-11-15T02:17:16;94178.56;;;3.62;100.00
11345;BME280;5727;42.600;23.028;2022-11-15T02:26:25;94171.88;;;3.56;100.00
11345;BME280;5727;42.600;23.028;2022-11-15T02:29:03;94159.47;;;3.53;100.00
11345;BME280;5727;42.600;23.028;2022-11-15T02:31:36;94165.41;;;3.54;100.00
11345;BME280;5727;42.600;23.028;2022-11-15T02:34:13;94176.00;;;3.57;100.00
11345;BME280;5727;42.600;23.028;2022-11-15T02:36:49;94169.00;;;3.58;100.00
11345;BME280;5727;42.600;23.028;2022-11-15T02:39:25;94164.88;;;3.57;100.00
11345;BME280;5727;42.600;23.028;2022-11-15T02:41:58;94162.53;;;3.55;100.00
11345;BME280;5727;42.600;23.028;2022-11-15T02:44:31;94166.19;;;3.54;100.00
11345;BME280;5727;42.600;23.028;2022-11-15T02:47:02;94167.72;;;3.55;100.00
11345;BME280;5727;42.600;23.028;2022-11-15T02:49:40;94167.47;;;3.52;100.00
11345;BME280;5727;42.600;23.028;2022-11-15T02:52:08;94163.09;;;3.52;100.00
11345;BME280;5727;42.600;23.028;2022-11-15T02:54:35;94167.75;;;3.50;100.00
11345;BME280;5727;42.600;23.028;2022-11-15T02:57:05;94167.47;;;3.52;100.00
11345;BME280;5727;42.600;23.028;2022-11-15T02:59:52;94161.03;;;3.49;100.00
11345;BME280;5727;42.600;23.028;2022-11-15T03:02:32;94156.91;;;3.48;100.00
11345;BME280;5727;42.600;23.028;2022-11-15T03:05:13;94163.38;;;3.46;100.00
11345;BME280;5727;42.600;23.028;2022-11-15T03:07:48;94160.28;;;3.44;100.00
11345;BME280;5727;42.600;23.028;2022-11-15T03:10:20;94156.94;;;3.43;100.00
11345;BME280;5727;42.600;23.028;2022-11-15T03:12:53;94147.59;;;3.42;100.00
11345;BME280;5727;42.600;23.028;2022-11-15T03:15:25;94160.06;;;3.40;100.00
11345;BME280;5727;42.600;23.028;2022-11-15T03:18:00;94158.53;;;3.39;100.00
11345;BME280;5727;42.600;23.028;2022-11-15T03:20:28;94156.97;;;3.38;100.00
11345;BME280;5727;42.600;23.028;2022-11-15T03:23:00;94158.53;;;3.39;100.00
11345;BME280;5727;42.600;23.028;2022-11-15T03:25:31;94160.06;;;3.40;100.00
11345;BME280;5727;42.600;23.028;2022-11-15T03:28:03;94157.47;;;3.40;100.00
11345;BME280;5727;42.600;23.028;2022-11-15T03:30:32;94159.53;;;3.38;100.00
11345;BME280;5727;42.600;23.028;2022-11-15T03:33:04;94152.59;;;3.34;100.00
11345;BME280;5727;42.600;23.028;2022-11-15T03:35:36;94145.13;;;3.32;100.00
11345;BME280;5727;42.600;23.028;2022-11-15T03:38:08;94139.38;;;3.35;100.00
11345;BME280;5727;42.600;23.028;2022-11-15T03:40:39;94140.47;;;3.29;100.00
11345;BME280;5727;42.600;23.028;2022-11-15T03:43:12;94137.38;;;3.27;100.00
11345;BME280;5727;42.600;23.028;2022-11-15T03:45:45;94131.16;;;3.28;100.00
11345;BME280;5727;42.600;23.028;2022-11-15T03:48:18;94126.50;;;3.25;100.00
11345;BME280;5727;42.600;23.028;2022-11-15T03:50:48;94124.69;;;3.26;100.00
11345;BME280;5727;42.600;23.028;2022-11-15T03:53:16;94126.00;;;3.23;100.00
11345;BME280;5727;42.600;23.028;2022-11-15T03:55:43;94122.38;;;3.24;100.00
11345;BME280;5727;42.600;23.028;2022-11-15T03:58:09;94121.88;;;3.22;100.00
11345;BME280;5727;42.600;23.028;2022-11-15T04:00:36;94118.78;;;3.20;100.00
11345;BME280;5727;42.600;23.028;2022-11-15T04:03:03;94116.47;;;3.19;100.00
11345;BME280;5727;42.600;23.028;2022-11-15T04:05:31;94116.97;;;3.21;100.00
11345;BME280;5727;42.600;23.028;2022-11-15T04:07:58;94121.09;;;3.22;100.00
11345;BME280;5727;42.600;23.028;2022-11-15T04:10:24;94115.97;;;3.17;100.00
11345;BME280;5727;42.600;23.028;2022-11-15T04:12:52;94119.28;;;3.17;100.00
11345;BME280;5727;42.600;23.028;2022-11-15T04:15:21;94117.25;;;3.14;100.00
11345;BME280;5727;42.600;23.028;2022-11-15T04:17:50;94120.88;;;3.13;100.00
11345;BME280;5727;42.600;23.028;2022-11-15T04:20:19;94117.03;;;3.11;100.00
11345;BME280;5727;42.600;23.028;2022-11-15T04:23:07;94123.22;;;3.10;100.00
11345;BME280;5727;42.600;23.028;2022-11-15T04:25:52;94118.31;;;3.08;100.00
11345;BME280;5727;42.600;23.028;2022-11-15T04:28:20;94113.19;;;3.03;100.00
11345;BME280;5727;42.600;23.028;2022-11-15T04:30:47;94111.41;;;2.99;100.00
11345;BME280;5727;42.600;23.028;2022-11-15T04:33:14;94111.13;;;3.00;100.00
11345;BME280;5727;42.600;23.028;2022-11-15T04:35:41;94109.09;;;2.97;100.00
11345;BME280;5727;42.600;23.028;2022-11-15T04:38:10;94114.53;;;2.96;100.00
11345;BME280;5727;42.600;23.028;2022-11-15T04:40:37;94106.25;;;2.94;100.00
11345;BME280;5727;42.600;23.028;2022-11-15T04:43:04;94106.03;;;2.85;100.00
11345;BME280;5727;42.600;23.028;2022-11-15T04:45:31;94100.88;;;2.85;100.00
11345;BME280;5727;42.600;23.028;2022-11-15T04:47:57;94103.47;;;2.85;100.00
11345;BME280;5727;42.600;23.028;2022-11-15T04:50:24;94108.63;;;2.85;100.00
11345;BME280;5727;42.600;23.028;2022-11-15T04:52:53;94113.28;;;2.83;100.00
11345;BME280;5727;42.600;23.028;2022-11-15T04:55:21;94115.09;;;2.83;100.00
11345;BME280;5727;42.600;23.028;2022-11-15T04:57:57;94114.34;;;2.82;100.00
11345;BME280;5727;42.600;23.028;2022-11-15T05:00:24;94114.88;;;2.79;100.00
11345;BME280;5727;42.600;23.028;2022-11-15T05:02:51;94102.72;;;2.79;100.00
11345;BME280;5727;42.600;23.028;2022-11-15T05:05:35;94116.44;;;2.80;100.00
11345;BME280;5727;42.600;23.028;2022-11-15T05:08:02;94111.25;;;2.80;100.00
11345;BME280;5727;42.600;23.028;2022-11-15T05:10:31;94116.25;;;2.61;100.00
11345;BME280;5727;42.600;23.028;2022-11-15T05:12:57;94118.38;;;2.49;100.00
11345;BME280;5727;42.600;23.028;2022-11-15T05:15:24;94120.91;;;2.59;100.00
11345;BME280;5727;42.600;23.028;2022-11-15T05:17:51;94124.00;;;2.66;100.00
11345;BME280;5727;42.600;23.028;2022-11-15T05:20:23;94116.19;;;2.71;100.00
11345;BME280;5727;42.600;23.028;2022-11-15T05:22:49;94111.78;;;2.77;100.00
11345;BME280;5727;42.600;23.028;2022-11-15T05:25:16;94115.38;;;2.81;100.00
11345;BME280;5727;42.600;23.028;2022-11-15T05:27:44;94116.16;;;2.82;100.00
11345;BME280;5727;42.600;23.028;2022-11-15T05:30:11;94115.88;;;2.83;100.00
11345;BME280;5727;42.600;23.028;2022-11-15T05:32:38;94116.66;;;2.84;100.00
11345;BME280;5727;42.600;23.028;2022-11-15T05:35:07;94123.38;;;2.85;100.00
11345;BME280;5727;42.600;23.028;2022-11-15T05:37:35;94116.44;;;2.80;100.00
11345;BME280;5727;42.600;23.028;2022-11-15T05:40:02;94117.44;;;2.84;100.00
11345;BME280;5727;42.600;23.028;2022-11-15T05:42:29;94115.59;;;2.85;100.00
11345;BME280;5727;42.600;23.028;2022-11-15T05:44:59;94115.38;;;2.81;100.00
11345;BME280;5727;42.600;23.028;2022-11-15T05:47:27;94110.72;;;2.83;100.00
11345;BME280;5727;42.600;23.028;2022-11-15T05:49:56;94111.97;;;2.91;100.00
11345;BME280;5727;42.600;23.028;2022-11-15T05:52:25;94107.56;;;2.91;100.00
11345;BME280;5727;42.600;23.028;2022-11-15T05:54:55;94110.38;;;2.95;100.00
11345;BME280;5727;42.600;23.028;2022-11-15T05:57:23;94113.69;;;3.05;100.00
11345;BME280;5727;42.600;23.028;2022-11-15T05:59:50;94111.56;;;3.12;100.00
11345;BME280;5727;42.600;23.028;2022-11-15T06:02:19;94113.66;;;3.10;100.00
11345;BME280;5727;42.600;23.028;2022-11-15T06:04:45;94116.19;;;3.20;100.00
11345;BME280;5727;42.600;23.028;2022-11-15T06:07:12;94111.19;;;3.29;100.00
11345;BME280;5727;42.600;23.028;2022-11-15T06:09:39;94117.59;;;3.41;100.00
11345;BME280;5727;42.600;23.028;2022-11-15T06:12:06;94111.31;;;3.47;100.00
11345;BME280;5727;42.600;23.028;2022-11-15T06:14:33;94112.84;;;3.53;100.00
11345;BME280;5727;42.600;23.028;2022-11-15T06:17:00;94108.09;;;3.60;100.00
11345;BME280;5727;42.600;23.028;2022-11-15T06:19:28;94111.19;;;3.62;100.00
11345;BME280;5727;42.600;23.028;2022-11-15T06:21:58;94120.47;;;3.68;100.00
11345;BME280;5727;42.600;23.028;2022-11-15T06:24:24;94122.00;;;3.75;100.00
11345;BME280;5727;42.600;23.028;2022-11-15T06:26:51;94115.19;;;3.79;100.00
11345;BME280;5727;42.600;23.028;2022-11-15T06:29:18;94111.47;;;3.90;100.00
11345;BME280;5727;42.600;23.028;2022-11-15T06:31:45;94116.88;;;3.93;100.00
11345;BME280;5727;42.600;23.028;2022-11-15T06:34:11;94122.22;;;4.02;100.00
11345;BME280;5727;42.600;23.028;2022-11-15T06:36:39;94113.91;;;4.05;100.00
11345;BME280;5727;42.600;23.028;2022-11-15T06:39:06;94116.44;;;4.10;100.00
11345;BME280;5727;42.600;23.028;2022-11-15T06:41:33;94111.16;;;4.20;100.00
11345;BME280;5727;42.600;23.028;2022-11-15T06:44:00;94107.69;;;4.29;100.00
11345;BME280;5727;42.600;23.028;2022-11-15T06:46:27;94116.13;;;4.40;100.00
11345;BME280;5727;42.600;23.028;2022-11-15T06:48:54;94108.50;;;4.48;100.00
11345;BME280;5727;42.600;23.028;2022-11-15T06:51:21;94105.84;;;4.53;100.00
11345;BME280;5727;42.600;23.028;2022-11-15T06:53:49;94110.13;;;4.44;100.00
11345;BME280;5727;42.600;23.028;2022-11-15T06:56:15;94106.09;;;4.57;100.00
11345;BME280;5727;42.600;23.028;2022-11-15T06:58:42;94103.41;;;4.62;100.00
11345;BME280;5727;42.600;23.028;2022-11-15T07:01:11;94103.22;;;4.58;100.00
11345;BME280;5727;42.600;23.028;2022-11-15T07:03:39;94102.34;;;4.63;100.00
11345;BME280;5727;42.600;23.028;2022-11-15T07:06:06;94105.22;;;4.43;100.00
11345;BME280;5727;42.600;23.028;2022-11-15T07:08:34;94103.16;;;4.40;100.00
11345;BME280;5727;42.600;23.028;2022-11-15T07:11:04;94101.78;;;4.47;100.00
11345;BME280;5727;42.600;23.028;2022-11-15T07:13:32;94097.72;;;4.60;100.00
11345;BME280;5727;42.600;23.028;2022-11-15T07:16:02;94096.34;;;4.68;100.00
11345;BME280;5727;42.600;23.028;2022-11-15T07:18:29;94089.22;;;4.36;100.00
11345;BME280;5727;42.600;23.028;2022-11-15T07:21:00;94096.53;;;4.29;100.00
11345;BME280;5727;42.600;23.028;2022-11-15T07:23:27;94096.59;;;4.24;100.00
11345;BME280;5727;42.600;23.028;2022-11-15T07:25:56;94100.63;;;4.35;100.00
11345;BME280;5727;42.600;23.028;2022-11-15T07:28:24;94089.22;;;4.12;100.00
11345;BME280;5727;42.600;23.028;2022-11-15T07:30:51;94097.72;;;4.18;100.00
11345;BME280;5727;42.600;23.028;2022-11-15T07:33:18;94094.50;;;4.26;100.00
11345;BME280;5727;42.600;23.028;2022-11-15T07:35:45;94092.72;;;4.45;100.00
11345;BME280;5727;42.600;23.028;2022-11-15T07:38:14;94090.28;;;4.53;100.00
11345;BME280;5727;42.600;23.028;2022-11-15T07:40:44;94091.16;;;4.68;100.00
11345;BME280;5727;42.600;23.028;2022-11-15T07:43:31;94101.03;;;4.84;100.00
11345;BME280;5727;42.600;23.028;2022-11-15T07:46:04;94092.66;;;5.11;100.00
11345;BME280;5727;42.600;23.028;2022-11-15T07:48:32;94088.41;;;5.33;100.00
11345;BME280;5727;42.600;23.028;2022-11-15T07:50:59;94083.47;;;5.50;100.00
11345;BME280;5727;42.600;23.028;2022-11-15T07:53:26;94083.38;;;5.55;100.00
11345;BME280;5727;42.600;23.028;2022-11-15T07:55:53;94079.00;;;5.70;100.00
11345;BME280;5727;42.600;23.028;2022-11-15T07:58:19;94080.66;;;5.79;100.00
11345;BME280;5727;42.600;23.028;2022-11-15T08:00:47;94085.47;;;5.72;100.00
11345;BME280;5727;42.600;23.028;2022-11-15T08:03:15;94078.75;;;5.85;100.00
11345;BME280;5727;42.600;23.028;2022-11-15T08:05:43;94088.25;;;6.08;100.00
11345;BME280;5727;42.600;23.028;2022-11-15T08:08:16;94078.22;;;6.28;100.00
11345;BME280;5727;42.600;23.028;2022-11-15T08:10:43;94075.25;;;6.48;100.00
11345;BME280;5727;42.600;23.028;2022-11-15T08:13:11;94074.75;;;6.60;100.00
11345;BME280;5727;42.600;23.028;2022-11-15T08:15:38;94068.75;;;6.73;100.00
11345;BME280;5727;42.600;23.028;2022-11-15T08:18:09;94068.91;;;6.90;100.00
11345;BME280;5727;42.600;23.028;2022-11-15T08:20:36;94058.44;;;7.04;100.00
11345;BME280;5727;42.600;23.028;2022-11-15T08:23:04;94054.16;;;7.21;100.00
11345;BME280;5727;42.600;23.028;2022-11-15T08:25:33;94049.19;;;7.33;100.00
11345;BME280;5727;42.600;23.028;2022-11-15T08:28:02;94048.22;;;7.52;100.00
11345;BME280;5727;42.600;23.028;2022-11-15T08:30:29;94047.66;;;7.63;100.00
11345;BME280;5727;42.600;23.028;2022-11-15T08:32:57;94046.53;;;7.78;100.00
11345;BME280;5727;42.600;23.028;2022-11-15T08:35:26;94049.78;;;7.83;100.00
11345;BME280;5727;42.600;23.028;2022-11-15T08:37:53;94047.38;;;7.95;100.00
11345;BME280;5727;42.600;23.028;2022-11-15T08:40:20;94040.69;;;8.03;100.00
11345;BME280;5727;42.600;23.028;2022-11-15T08:42:47;94039.81;;;8.16;100.00
11345;BME280;5727;42.600;23.028;2022-11-15T08:45:14;94038.88;;;8.20;100.00
11345;BME280;5727;42.600;23.028;2022-11-15T08:47:41;94036.41;;;8.15;100.00
11345;BME280;5727;42.600;23.028;2022-11-15T08:50:08;94043.00;;;8.13;100.00
11345;BME280;5727;42.600;23.028;2022-11-15T08:52:36;94030.19;;;8.25;100.00
11345;BME280;5727;42.600;23.028;2022-11-15T08:55:04;94028.97;;;8.31;100.00
11345;BME280;5727;42.600;23.028;2022-11-15T08:57:31;94031.59;;;8.31;100.00
11345;BME280;5727;42.600;23.028;2022-11-15T08:59:58;94029.41;;;8.24;100.00
11345;BME280;5727;42.600;23.028;2022-11-15T09:02:24;94031.13;;;8.29;100.00
11345;BME280;5727;42.600;23.028;2022-11-15T09:04:51;94023.03;;;8.39;100.00
11345;BME280;5727;42.600;23.028;2022-11-15T09:07:18;94016.13;;;8.43;100.00
11345;BME280;5727;42.600;23.028;2022-11-15T09:09:46;94012.28;;;8.49;100.00
11345;BME280;5727;42.600;23.028;2022-11-15T09:12:12;94005.06;;;8.46;100.00
11345;BME280;5727;42.600;23.028;2022-11-15T09:14:39;93996.19;;;8.64;100.00
11345;BME280;5727;42.600;23.028;2022-11-15T09:17:07;94000.19;;;8.79;100.00
11345;BME280;5727;42.600;23.028;2022-11-15T09:19:34;93981.59;;;8.89;100.00
11345;BME280;5727;42.600;23.028;2022-11-15T09:22:05;93987.91;;;8.96;100.00
11345;BME280;5727;42.600;23.028;2022-11-15T09:24:32;93973.44;;;9.07;100.00
11345;BME280;5727;42.600;23.028;2022-11-15T09:27:00;93974.38;;;9.20;100.00
11345;BME280;5727;42.600;23.028;2022-11-15T09:29:27;93966.19;;;9.39;100.00
11345;BME280;5727;42.600;23.028;2022-11-15T09:31:54;93968.47;;;9.49;100.00
11345;BME280;5727;42.600;23.028;2022-11-15T09:34:21;93966.56;;;9.66;100.00
11345;BME280;5727;42.600;23.028;2022-11-15T09:36:47;93957.75;;;9.79;100.00
11345;BME280;5727;42.600;23.028;2022-11-15T09:39:14;93956.47;;;9.94;100.00
11345;BME280;5727;42.600;23.028;2022-11-15T09:42:04;93951.31;;;10.06;99.86
11345;BME280;5727;42.600;23.028;2022-11-15T09:44:42;93949.91;;;10.17;99.33
11345;BME280;5727;42.600;23.028;2022-11-15T09:47:32;93946.59;;;10.29;98.63
11345;BME280;5727;42.600;23.028;2022-11-15T09:50:08;93949.78;;;10.43;97.68
11345;BME280;5727;42.600;23.028;2022-11-15T09:52:36;93944.53;;;10.43;98.42
11345;BME280;5727;42.600;23.028;2022-11-15T09:55:08;93930.63;;;10.51;97.88
11345;BME280;5727;42.600;23.028;2022-11-15T09:57:44;93926.19;;;10.63;97.26
11345;BME280;5727;42.600;23.028;2022-11-15T10:00:17;93926.78;;;10.69;96.63
11345;BME280;5727;42.600;23.028;2022-11-15T10:03:02;93924.84;;;10.78;96.26
11345;BME280;5727;42.600;23.028;2022-11-15T10:05:32;93923.22;;;10.85;96.02
11345;BME280;5727;42.600;23.028;2022-11-15T10:08:06;93918.88;;;11.10;94.99
11345;BME280;5727;42.600;23.028;2022-11-15T10:10:41;93903.81;;;11.19;94.02
11345;BME280;5727;42.600;23.028;2022-11-15T10:13:15;93902.44;;;11.34;93.67
11345;BME280;5727;42.600;23.028;2022-11-15T10:15:44;93900.50;;;11.55;92.49
11345;BME280;5727;42.600;23.028;2022-11-15T10:18:16;93900.75;;;11.62;91.18
11345;BME280;5727;42.600;23.028;2022-11-15T10:20:49;93899.91;;;11.82;90.42
11345;BME280;5727;42.600;23.028;2022-11-15T10:23:18;93898.59;;;12.00;89.46
11345;BME280;5727;42.600;23.028;2022-11-15T10:25:45;93891.47;;;12.13;89.27
11345;BME280;5727;42.600;23.028;2022-11-15T10:28:16;93892.44;;;12.20;88.48
11345;BME280;5727;42.600;23.028;2022-11-15T10:30:45;93881.25;;;12.35;87.40
11345;BME280;5727;42.600;23.028;2022-11-15T10:33:31;93883.34;;;12.42;86.56
11345;BME280;5727;42.600;23.028;2022-11-15T10:36:16;93869.41;;;12.53;86.31
11345;BME280;5727;42.600;23.028;2022-11-15T10:38:55;93867.72;;;12.61;85.67
11345;BME280;5727;42.600;23.028;2022-11-15T10:41:29;93864.22;;;12.69;85.53
11345;BME280;5727;42.600;23.028;2022-11-15T10:44:19;93853.53;;;12.77;85.10
11345;BME280;5727;42.600;23.028;2022-11-15T10:46:48;93849.97;;;12.98;84.74
11345;BME280;5727;42.600;23.028;2022-11-15T10:49:18;93850.59;;;13.07;84.46
11345;BME280;5727;42.600;23.028;2022-11-15T10:51:47;93843.84;;;13.21;83.23
11345;BME280;5727;42.600;23.028;2022-11-15T10:54:19;93840.94;;;13.26;82.61
11345;BME280;5727;42.600;23.028;2022-11-15T10:56:50;93841.31;;;13.40;82.69
11345;BME280;5727;42.600;23.028;2022-11-15T10:59:24;93840.03;;;13.50;81.79
11345;BME280;5727;42.600;23.028;2022-11-15T11:01:53;93837.72;;;13.64;80.92
11345;BME280;5727;42.600;23.028;2022-11-15T11:04:20;93837.56;;;13.72;80.09
11345;BME280;5727;42.600;23.028;2022-11-15T11:06:48;93832.44;;;13.79;79.29
11345;BME280;5727;42.600;23.028;2022-11-15T11:09:30;93830.31;;;13.85;78.26
11345;BME280;5727;42.600;23.028;2022-11-15T11:11:58;93824.94;;;13.97;77.24
11345;BME280;5727;42.600;23.028;2022-11-15T11:14:30;93820.94;;;14.03;77.32
11345;BME280;5727;42.600;23.028;2022-11-15T11:17:03;93810.72;;;14.17;76.97
11345;BME280;5727;42.600;23.028;2022-11-15T11:19:40;93804.25;;;14.30;76.04
11345;BME280;5727;42.600;23.028;2022-11-15T11:22:19;93804.38;;;14.37;75.24
11345;BME280;5727;42.600;23.028;2022-11-15T11:24:52;93799.59;;;14.43;75.36
11345;BME280;5727;42.600;23.028;2022-11-15T11:27:30;93785.03;;;14.49;74.05
11345;BME280;5727;42.600;23.028;2022-11-15T11:30:08;93779.22;;;14.59;73.86
11345;BME280;5727;42.600;23.028;2022-11-15T11:32:47;93780.72;;;14.60;73.56
11345;BME280;5727;42.600;23.028;2022-11-15T11:35:20;93775.66;;;14.71;71.74
11345;BME280;5727;42.600;23.028;2022-11-15T11:37:51;93768.28;;;14.80;70.97
11345;BME280;5727;42.600;23.028;2022-11-15T11:40:29;93772.47;;;14.81;70.56
11345;BME280;5727;42.600;23.028;2022-11-15T11:43:02;93767.72;;;14.90;70.21
11345;BME280;5727;42.600;23.028;2022-11-15T11:46:09;93760.06;;;15.04;69.82
11345;BME280;5727;42.600;23.028;2022-11-15T11:48:41;93756.06;;;15.13;69.34
11345;BME280;5727;42.600;23.028;2022-11-15T11:51:13;93756.53;;;15.19;68.98
11345;BME280;5727;42.600;23.028;2022-11-15T11:53:46;93746.91;;;15.30;68.24
11345;BME280;5727;42.600;23.028;2022-11-15T11:56:22;93746.69;;;15.38;66.69
11345;BME280;5727;42.600;23.028;2022-11-15T11:58:52;93743.69;;;15.40;65.34
11345;BME280;5727;42.600;23.028;2022-11-15T12:01:23;93735.88;;;15.47;65.76
11345;BME280;5727;42.600;23.028;2022-11-15T12:03:55;93735.25;;;15.53;64.38
11345;BME280;5727;42.600;23.028;2022-11-15T12:06:29;93725.09;;;15.55;65.08
11345;BME280;5727;42.600;23.028;2022-11-15T12:09:01;93718.44;;;15.65;64.10
11345;BME280;5727;42.600;23.028;2022-11-15T12:11:32;93717.56;;;15.57;65.00
11345;BME280;5727;42.600;23.028;2022-11-15T12:14:04;93713.84;;;15.62;63.80
11345;BME280;5727;42.600;23.028;2022-11-15T12:16:33;93712.56;;;15.75;63.99
11345;BME280;5727;42.600;23.028;2022-11-15T12:19:01;93711.75;;;15.71;61.39
11345;BME280;5727;42.600;23.028;2022-11-15T12:21:34;93714.25;;;15.90;60.74
11345;BME280;5727;42.600;23.028;2022-11-15T12:24:06;93703.91;;;16.74;58.33
11345;BME280;5727;42.600;23.028;2022-11-15T12:26:38;93704.00;;;17.76;51.84
11345;BME280;5727;42.600;23.028;2022-11-15T12:29:14;93692.44;;;18.15;50.04
11345;BME280;5727;42.600;23.028;2022-11-15T12:31:45;93685.09;;;18.81;47.66
11345;BME280;5727;42.600;23.028;2022-11-15T12:34:30;93680.97;;;19.22;46.44
11345;BME280;5727;42.600;23.028;2022-11-15T12:37:01;93683.22;;;19.76;44.36
11345;BME280;5727;42.600;23.028;2022-11-15T12:40:03;93672.09;;;20.17;42.61
11345;BME280;5727;42.600;23.028;2022-11-15T12:42:41;93663.00;;;20.86;40.61
11345;BME280;5727;42.600;23.028;2022-11-15T12:45:24;93665.44;;;20.63;41.27
11345;BME280;5727;42.600;23.028;2022-11-15T12:47:52;93664.44;;;20.98;40.50
11345;BME280;5727;42.600;23.028;2022-11-15T12:50:53;93665.25;;;21.46;39.22
11345;BME280;5727;42.600;23.028;2022-11-15T12:53:27;93670.94;;;21.01;39.47
11345;BME280;5727;42.600;23.028;2022-11-15T12:56:18;93651.78;;;21.16;39.35
11345;BME280;5727;42.600;23.028;2022-11-15T12:58:47;93653.00;;;21.52;38.74
11345;BME280;5727;42.600;23.028;2022-11-15T13:01:53;93649.75;;;21.34;38.58
11345;BME280;5727;42.600;23.028;2022-11-15T13:04:26;93649.31;;;21.39;38.94
11345;BME280;5727;42.600;23.028;2022-11-15T13:06:55;93645.66;;;21.63;38.67
11345;BME280;5727;42.600;23.028;2022-11-15T13:09:53;93644.25;;;21.93;37.55
11345;BME280;5727;42.600;23.028;2022-11-15T13:12:50;93641.31;;;21.83;37.48
11345;BME280;5727;42.600;23.028;2022-11-15T13:15:45;93638.34;;;22.08;37.12
11345;BME280;5727;42.600;23.028;2022-11-15T13:18:34;93650.47;;;21.38;38.02
11345;BME280;5727;42.600;23.028;2022-11-15T13:21:05;93652.00;;;21.39;37.78
11345;BME280;5727;42.600;23.028;2022-11-15T13:23:57;93647.78;;;20.87;39.68
11345;BME280;5727;42.600;23.028;2022-11-15T13:26:24;93646.66;;;20.84;39.68